Diksmuide Heliport

EBDI · West-Vlaanderen, Flanders, 比利时

2024年7月12日 15:002024年7月13日 00:00有效
时间
星期五
15:00
>40%
星期五
16:00
>40%
星期五
17:00
>40%
星期五
18:00
>40%
星期五
19:00
星期五
20:00
星期五
21:00
星期五
22:00
星期五
23:00
代码
MVFR
MVFR
MVFR
MVFR
MVFR
MVFR
MVFR
MVFR
MVFR
天气
光 雨
光 雨
光 雨
光 雨
灰蒙蒙
灰蒙蒙
碎云
碎云
碎云
能见度
6 km
6 km
6 km
6 km
10 km+
10 km+
10 km+
10 km+
10 km+
天花板
1.500 ft
1.500 ft
1.500 ft
1.500 ft
1.800 ft
1.800 ft
3.000 ft
3.000 ft
3.000 ft
340°
340°
340°
340°
340°
340°
340°
340°
340°
340°
340°
340°
340°
340°
340°
340°
340°
340°
速度
15 kt
15 kt
15 kt
15 kt
15 kt
15 kt
15 kt
15 kt
15 kt
阵风
温度/星期日
22:01

原版的

TAF EBFN 121141Z 1213/1222 34015KT 9999 SCT015 BKN018 OVC030
TEMPO 1213/1217 6000 -RA SCT012 BKN015 OVC018
BECMG 1217/1219 SCT022 BKN030

TAF Diksmuide Heliport

Diksmuide Heliport是,比利时中的直升机场。 该机场位于纬度51,01928和经度2,85821。 本场的ICAO机场代码为EBDI。 机场在Bruxelles FIR中。

该航空气象观测是针对Koksijde Air Base在2024年7月12日 13:41, 当地时间进行的。 从2024年7月12日 15:00到2024年7月13日 00:00, 当地时间有效.

预报

  • 在星期五 15:00和星期六 00:00之间

    • 风: 风来自340°方向,速度为15 kt。
    • 能见度: 10 km 或者更多
    • 乌云: 疏云,零星散落的云朵在1.500 ft的高度, 碎云在1.800 ft的高度 和 乌云密布在3.000 ft的高度.
  • 暂时在星期五 15:00和19:00之间

    • 能见度: 6 km
    • 天气: 光 雨
    • 乌云: 疏云,零星散落的云朵在1.200 ft的高度, 碎云在1.500 ft的高度 和 乌云密布在1.800 ft的高度.
  • 介于星期五 19:00和21:00之间

    • 乌云: 疏云,零星散落的云朵在2.200 ft的高度 和 碎云在3.000 ft的高度.

白天

今天,太阳从05:48升起,在21:59降落。 这适用于Diksmuide Heliport,世界夏令时可能有所不同。 当地时间与世界标准时间之间的时差为+2 小时。 夏令时目前正在进行中。

报告变更